createdAt,value
2023-05-14T00:00:44.549Z,19.1361
2023-05-14T00:01:46.942Z,19.0880
2023-05-14T00:02:49.287Z,19.1177
2023-05-14T00:03:51.695Z,19.1424
2023-05-14T00:04:53.897Z,19.0820
2023-05-14T00:05:56.238Z,18.9293
2023-05-14T00:06:58.579Z,18.8320
2023-05-14T00:08:00.921Z,18.8223
2023-05-14T00:09:03.258Z,18.8088
2023-05-14T00:10:05.605Z,18.8450
2023-05-14T00:11:08.047Z,18.8806
2023-05-14T00:12:10.304Z,18.9053
2023-05-14T00:13:12.591Z,18.8877
2023-05-14T00:14:14.946Z,18.8591
2023-05-14T00:15:17.270Z,18.8460
2023-05-14T00:16:19.662Z,18.9002
2023-05-14T00:17:21.975Z,18.9286
2023-05-14T00:18:24.312Z,18.8754
2023-05-14T00:19:26.717Z,18.8956
2023-05-14T00:20:28.956Z,18.8861
2023-05-14T00:21:31.355Z,18.8219
2023-05-14T00:22:33.647Z,18.7734
2023-05-14T00:23:36.078Z,18.7294
2023-05-14T00:24:38.975Z,18.7985
2023-05-14T00:25:40.824Z,18.8299
2023-05-14T00:26:43.973Z,18.8114
2023-05-14T00:27:45.422Z,18.7801
2023-05-14T00:28:47.729Z,18.8304
2023-05-14T00:29:50.777Z,18.8252
2023-05-14T00:30:52.644Z,18.8426
2023-05-14T00:31:54.809Z,18.8528
2023-05-14T00:32:58.112Z,18.8825
2023-05-14T00:33:59.467Z,18.8795
2023-05-14T00:35:01.919Z,18.9130
2023-05-14T00:36:04.423Z,18.9641
2023-05-14T00:37:06.926Z,19.0263
2023-05-14T00:38:09.798Z,19.0489
2023-05-14T00:39:11.061Z,19.0520
2023-05-14T00:40:13.650Z,18.9671
2023-05-14T00:41:16.187Z,18.9078
2023-05-14T00:42:18.187Z,18.8355
2023-05-14T00:43:20.733Z,18.8304
2023-05-14T00:44:22.873Z,18.9102
2023-05-14T00:45:25.354Z,18.8877
2023-05-14T00:46:27.608Z,18.8023
2023-05-14T00:47:30.674Z,18.7916
2023-05-14T00:48:32.433Z,18.8695
2023-05-14T00:49:34.776Z,18.8774
2023-05-14T00:50:36.998Z,18.8882
2023-05-14T00:51:39.185Z,18.9040
2023-05-14T00:52:41.527Z,18.8374
2023-05-14T00:53:43.995Z,18.7288
2023-05-14T00:54:46.261Z,18.7368
2023-05-14T00:55:49.062Z,18.6409
2023-05-14T00:56:51.096Z,18.5864
2023-05-14T00:57:53.311Z,18.6137
2023-05-14T00:58:55.492Z,18.6142
2023-05-14T00:59:58.031Z,18.5774
2023-05-14T01:01:00.779Z,18.5034
2023-05-14T01:02:02.710Z,18.4574
2023-05-14T01:03:05.192Z,18.4103
2023-05-14T01:04:07.936Z,18.3871
2023-05-14T01:05:09.707Z,18.3937
2023-05-14T01:06:11.975Z,18.4682
2023-05-14T01:07:14.346Z,18.5295
2023-05-14T01:08:16.545Z,18.5660
2023-05-14T01:09:18.957Z,18.5811
2023-05-14T01:10:21.624Z,18.5937
2023-05-14T01:11:23.745Z,18.5599
2023-05-14T01:12:26.621Z,18.4601
2023-05-14T01:13:28.285Z,18.4145
2023-05-14T01:14:30.659Z,18.4061
2023-05-14T01:15:33.070Z,18.4279
2023-05-14T01:16:35.331Z,18.4723
2023-05-14T01:17:37.671Z,18.5454
2023-05-14T01:18:39.929Z,18.5845
2023-05-14T01:19:42.343Z,18.5842
2023-05-14T01:20:44.761Z,18.5360
2023-05-14T01:21:47.043Z,18.5030
2023-05-14T01:22:49.408Z,18.5606
2023-05-14T01:23:51.598Z,18.5821
2023-05-14T01:24:54.015Z,18.5481
2023-05-14T01:25:56.415Z,18.5078
2023-05-14T01:26:58.708Z,18.4683
2023-05-14T01:28:00.930Z,18.4654
2023-05-14T01:29:03.625Z,18.4064
2023-05-14T01:30:05.681Z,18.3804
2023-05-14T01:31:08.102Z,18.3275
2023-05-14T01:32:10.693Z,18.3409
2023-05-14T01:33:12.840Z,18.3244
2023-05-14T01:34:15.201Z,18.2761
2023-05-14T01:35:17.360Z,18.2899
2023-05-14T01:36:20.106Z,18.3158
2023-05-14T01:37:22.190Z,18.2681
2023-05-14T01:38:24.456Z,18.2012
2023-05-14T01:39:26.682Z,18.1902
2023-05-14T01:40:28.950Z,18.1702
2023-05-14T01:41:31.477Z,18.1364
2023-05-14T01:42:33.694Z,18.1529
2023-05-14T01:43:36.228Z,18.2189
2023-05-14T01:44:38.315Z,18.2660
2023-05-14T01:45:40.835Z,18.2418
2023-05-14T01:46:43.273Z,18.2789
2023-05-14T01:47:45.613Z,18.2089
2023-05-14T01:48:47.749Z,18.2286
2023-05-14T01:49:50.235Z,18.2712
2023-05-14T01:50:52.439Z,18.2409
2023-05-14T01:51:54.963Z,18.1591
2023-05-14T01:52:57.358Z,18.1785
2023-05-14T01:53:59.664Z,18.2390
2023-05-14T01:55:02.079Z,18.2323
2023-05-14T01:56:04.101Z,18.2016
2023-05-14T01:57:06.391Z,18.1500
2023-05-14T01:58:08.801Z,18.2037
2023-05-14T01:59:11.205Z,18.1992
2023-05-14T02:00:13.532Z,18.1211
2023-05-14T02:01:16.315Z,18.0861
2023-05-14T02:02:18.980Z,18.0562
2023-05-14T02:03:20.654Z,17.9914
2023-05-14T02:04:22.846Z,18.0072
2023-05-14T02:05:25.327Z,17.9829
2023-05-14T02:06:27.983Z,17.9599
2023-05-14T02:07:29.940Z,17.9077
2023-05-14T02:08:32.655Z,17.9488
2023-05-14T02:09:34.581Z,17.9709
2023-05-14T02:10:36.829Z,17.9254
2023-05-14T02:11:39.247Z,17.8651
2023-05-14T02:12:41.712Z,17.8183
2023-05-14T02:13:43.926Z,17.7285
2023-05-14T02:14:46.199Z,17.6277
2023-05-14T02:15:48.708Z,17.6071
2023-05-14T02:16:50.945Z,17.5901
2023-05-14T02:17:53.264Z,17.5202
2023-05-14T02:18:55.937Z,17.5870
2023-05-14T02:19:58.053Z,17.7155
2023-05-14T02:21:00.287Z,17.7313
2023-05-14T02:22:02.690Z,17.6973
2023-05-14T02:23:05.714Z,17.7288
2023-05-14T02:24:07.240Z,17.8387
2023-05-14T02:25:09.947Z,17.9293
2023-05-14T02:26:12.870Z,18.0021
2023-05-14T02:27:14.857Z,18.0612
2023-05-14T02:28:17.013Z,18.0668
2023-05-14T02:29:19.136Z,18.1549
2023-05-14T02:30:22.144Z,18.1427
2023-05-14T02:31:24.074Z,18.0396
2023-05-14T02:32:26.346Z,18.0606
2023-05-14T02:33:28.678Z,18.0706
2023-05-14T02:34:30.717Z,17.9827
2023-05-14T02:35:33.249Z,17.9124
2023-05-14T02:36:35.775Z,17.8577
2023-05-14T02:37:38.136Z,17.9253
2023-05-14T02:38:40.145Z,17.8625
2023-05-14T02:39:42.328Z,17.8522
2023-05-14T02:40:44.671Z,17.8835
2023-05-14T02:41:47.007Z,17.7842
2023-05-14T02:42:49.358Z,17.6977
2023-05-14T02:43:51.709Z,17.6791
2023-05-14T02:44:54.290Z,17.8149
2023-05-14T02:45:56.355Z,17.8342
2023-05-14T02:46:58.792Z,17.8321
2023-05-14T02:48:01.088Z,17.8036
2023-05-14T02:49:03.392Z,17.7167
2023-05-14T02:50:06.027Z,17.6976
2023-05-14T02:51:08.081Z,17.7155
2023-05-14T02:52:10.437Z,17.7265
2023-05-14T02:53:12.708Z,17.7096
2023-05-14T02:54:15.050Z,17.7442
2023-05-14T02:55:17.431Z,17.6815
2023-05-14T02:56:19.719Z,17.6240
2023-05-14T02:57:22.097Z,17.6309
2023-05-14T02:58:27.435Z,17.6644
2023-05-14T02:59:26.980Z,17.7686
2023-05-14T03:00:29.072Z,17.8729
2023-05-14T03:01:32.041Z,17.9570
2023-05-14T03:02:33.970Z,18.0074
2023-05-14T03:03:36.108Z,17.9517
2023-05-14T03:04:38.718Z,17.9309
2023-05-14T03:05:41.042Z,18.0131
2023-05-14T03:06:43.122Z,18.0892
2023-05-14T03:07:45.466Z,18.0704
2023-05-14T03:08:47.793Z,18.0293
2023-05-14T03:09:50.095Z,17.9824
2023-05-14T03:10:52.468Z,18.0555
2023-05-14T03:11:54.780Z,18.0790
2023-05-14T03:12:57.166Z,18.0606
2023-05-14T03:13:59.503Z,18.0794
2023-05-14T03:15:02.104Z,18.0168
2023-05-14T03:16:04.150Z,17.9547
2023-05-14T03:17:06.574Z,17.9394
2023-05-14T03:18:09.134Z,17.8455
2023-05-14T03:19:11.363Z,17.7966
2023-05-14T03:20:13.584Z,17.8398
2023-05-14T03:21:15.997Z,17.8696
2023-05-14T03:22:18.371Z,17.9060
2023-05-14T03:23:20.515Z,17.8950
2023-05-14T03:24:22.974Z,17.8816
2023-05-14T03:25:25.783Z,17.8689
2023-05-14T03:26:27.935Z,17.8505
2023-05-14T03:27:30.636Z,17.8365
2023-05-14T03:28:32.201Z,17.8580
2023-05-14T03:29:34.513Z,17.8216
2023-05-14T03:30:36.996Z,17.7866
2023-05-14T03:31:39.214Z,17.7806
2023-05-14T03:32:41.618Z,17.7584
2023-05-14T03:33:44.044Z,17.7193
2023-05-14T03:34:46.312Z,17.7595
2023-05-14T03:35:48.555Z,17.7821
2023-05-14T03:36:52.007Z,17.7818
2023-05-14T03:37:53.228Z,17.8660
2023-05-14T03:38:55.570Z,17.8765
2023-05-14T03:39:58.037Z,17.8364
2023-05-14T03:41:00.453Z,17.7441
2023-05-14T03:42:02.881Z,17.6709
2023-05-14T03:43:04.904Z,17.6676
2023-05-14T03:44:07.275Z,17.7722
2023-05-14T03:45:09.615Z,17.7805
2023-05-14T03:46:12.258Z,17.8413
2023-05-14T03:47:14.363Z,17.8856
2023-05-14T03:48:16.796Z,17.9169
2023-05-14T03:49:19.016Z,17.9256
2023-05-14T03:50:21.359Z,17.9748
2023-05-14T03:51:23.603Z,17.9866
2023-05-14T03:52:25.942Z,17.9205
2023-05-14T03:53:28.383Z,17.9042
2023-05-14T03:54:30.668Z,17.8482
2023-05-14T03:55:32.925Z,17.8726
2023-05-14T03:56:35.294Z,17.9655
2023-05-14T03:57:37.761Z,18.0001
2023-05-14T03:58:40.069Z,17.9396
2023-05-14T03:59:42.647Z,17.8328
2023-05-14T04:00:44.937Z,17.7724
2023-05-14T04:01:47.290Z,17.8091
2023-05-14T04:02:49.330Z,17.8175
2023-05-14T04:03:51.845Z,17.8811
2023-05-14T04:04:54.438Z,17.9024
2023-05-14T04:05:57.083Z,17.9096
2023-05-14T04:06:58.696Z,17.8956
2023-05-14T04:08:01.013Z,17.7918
2023-05-14T04:09:03.428Z,17.7479
2023-05-14T04:10:06.070Z,17.7270
2023-05-14T04:11:08.061Z,17.6692
2023-05-14T04:12:10.552Z,17.6734
2023-05-14T04:13:13.138Z,17.6809
2023-05-14T04:14:15.212Z,17.7443
2023-05-14T04:15:17.723Z,17.8090
2023-05-14T04:16:19.730Z,17.8907
2023-05-14T04:17:22.090Z,17.9346
2023-05-14T04:18:24.548Z,17.9809
2023-05-14T04:19:26.697Z,17.9760
2023-05-14T04:20:29.190Z,17.8857
2023-05-14T04:21:31.472Z,17.8058
2023-05-14T04:22:33.945Z,17.7690
2023-05-14T04:23:36.134Z,17.7302
2023-05-14T04:24:38.415Z,17.6644
2023-05-14T04:25:40.724Z,17.6264
2023-05-14T04:26:43.180Z,17.5832
2023-05-14T04:27:45.407Z,17.5499
2023-05-14T04:28:47.950Z,17.5542
2023-05-14T04:29:50.329Z,17.5895
2023-05-14T04:30:52.443Z,17.6389
2023-05-14T04:31:54.781Z,17.6219
2023-05-14T04:32:57.131Z,17.5769
2023-05-14T04:33:59.576Z,17.5836
2023-05-14T04:35:01.898Z,17.6288
2023-05-14T04:36:04.088Z,17.5949
2023-05-14T04:37:06.401Z,17.5778
2023-05-14T04:38:08.770Z,17.6593
2023-05-14T04:39:11.180Z,17.7078
2023-05-14T04:40:13.407Z,17.7075
2023-05-14T04:41:15.744Z,17.7942
2023-05-14T04:42:18.080Z,17.7884
2023-05-14T04:43:20.466Z,17.8434
2023-05-14T04:44:22.743Z,17.8956
2023-05-14T04:45:25.086Z,17.8960
2023-05-14T04:46:27.553Z,17.8205
2023-05-14T04:47:29.828Z,17.7279
2023-05-14T04:48:32.084Z,17.6976
2023-05-14T04:49:34.563Z,17.6866
2023-05-14T04:50:36.832Z,17.6079
2023-05-14T04:51:39.097Z,17.5585
2023-05-14T04:52:41.482Z,17.5280
2023-05-14T04:53:45.025Z,17.5128
2023-05-14T04:54:47.410Z,17.4985
2023-05-14T04:55:48.941Z,17.4660
2023-05-14T04:56:50.919Z,17.4495
2023-05-14T04:57:53.169Z,17.4212
2023-05-14T04:58:55.982Z,17.4535
2023-05-14T04:59:57.795Z,17.5182
2023-05-14T05:01:00.504Z,17.5323
2023-05-14T05:02:02.486Z,17.5471
2023-05-14T05:03:05.257Z,17.5532
2023-05-14T05:04:07.205Z,17.5983
2023-05-14T05:05:09.862Z,17.6377
2023-05-14T05:06:12.329Z,17.7437
2023-05-14T05:07:14.143Z,17.8328
2023-05-14T05:08:17.115Z,17.8720
2023-05-14T05:09:19.400Z,17.8694
2023-05-14T05:10:21.272Z,17.8701
2023-05-14T05:11:23.603Z,17.9265
2023-05-14T05:12:25.911Z,17.9672
2023-05-14T05:13:28.270Z,17.9400
2023-05-14T05:14:30.545Z,17.8921
2023-05-14T05:15:33.014Z,17.8632
2023-05-14T05:16:35.559Z,17.8872
2023-05-14T05:17:37.797Z,17.8859
2023-05-14T05:18:40.186Z,17.8566
2023-05-14T05:19:44.118Z,17.8995
2023-05-14T05:20:44.589Z,17.9797
2023-05-14T05:21:47.355Z,18.0053
2023-05-14T05:22:49.395Z,17.9711
2023-05-14T05:23:51.652Z,17.9653
2023-05-14T05:24:54.322Z,17.9584
2023-05-14T05:25:56.349Z,17.9561
2023-05-14T05:26:58.593Z,17.9661
2023-05-14T05:28:00.968Z,17.9052
2023-05-14T05:29:03.298Z,17.8728
2023-05-14T05:30:05.641Z,17.8048
2023-05-14T05:31:08.330Z,17.8043
2023-05-14T05:32:10.435Z,17.8608
2023-05-14T05:33:12.668Z,17.8881
2023-05-14T05:34:14.918Z,17.9062
2023-05-14T05:35:17.343Z,17.9783
2023-05-14T05:36:19.715Z,18.0531
2023-05-14T05:37:22.097Z,18.0411
2023-05-14T05:38:24.298Z,18.0700
2023-05-14T05:39:26.643Z,18.0877
2023-05-14T05:40:28.974Z,18.1006
2023-05-14T05:41:31.321Z,18.1257
2023-05-14T05:42:33.751Z,18.2655
2023-05-14T05:43:36.049Z,18.3135
2023-05-14T05:44:38.462Z,18.2977
2023-05-14T05:45:40.740Z,18.3106
2023-05-14T05:46:43.191Z,18.2914
2023-05-14T05:47:45.488Z,18.3158
2023-05-14T05:48:47.809Z,18.3419
2023-05-14T05:49:50.006Z,18.3483
2023-05-14T05:50:52.377Z,18.3419
2023-05-14T05:51:54.793Z,18.3017
2023-05-14T05:52:57.023Z,18.2996
2023-05-14T05:53:59.339Z,18.2906
2023-05-14T05:55:01.697Z,18.2604
2023-05-14T05:56:04.091Z,18.3082
2023-05-14T05:57:06.456Z,18.3867
2023-05-14T05:58:08.713Z,18.3633
2023-05-14T05:59:11.157Z,18.3919
2023-05-14T06:00:13.484Z,18.4439
2023-05-14T06:01:15.888Z,18.5438
2023-05-14T06:02:18.121Z,18.5666
2023-05-14T06:03:20.410Z,18.6533
2023-05-14T06:04:22.750Z,18.6801
2023-05-14T06:05:25.091Z,18.6954
2023-05-14T06:06:27.372Z,18.6976
2023-05-14T06:07:29.801Z,18.6767
2023-05-14T06:08:32.428Z,18.6821
2023-05-14T06:09:34.401Z,18.7093
2023-05-14T06:10:36.850Z,18.7356
2023-05-14T06:11:39.082Z,18.7486
2023-05-14T06:12:41.444Z,18.7836
2023-05-14T06:13:43.818Z,18.7775
2023-05-14T06:14:46.084Z,18.8260
2023-05-14T06:15:48.407Z,18.8532
2023-05-14T06:16:50.924Z,18.8178
2023-05-14T06:17:53.418Z,18.7921
2023-05-14T06:18:55.505Z,18.8047
2023-05-14T06:19:57.984Z,18.8714
2023-05-14T06:21:00.142Z,18.9171
2023-05-14T06:22:02.791Z,18.9532
2023-05-14T06:23:04.810Z,19.0381
2023-05-14T06:24:07.216Z,19.0715
2023-05-14T06:25:09.610Z,19.0768
2023-05-14T06:26:12.129Z,18.9871
2023-05-14T06:27:14.170Z,18.9958
2023-05-14T06:28:16.442Z,18.9816
2023-05-14T06:29:19.306Z,18.9552
2023-05-14T06:30:21.392Z,18.9774
2023-05-14T06:31:23.449Z,18.9980
2023-05-14T06:32:25.851Z,19.0168
2023-05-14T06:33:28.129Z,18.9918
2023-05-14T06:34:30.551Z,18.9382
2023-05-14T06:35:32.811Z,18.8935
2023-05-14T06:36:35.096Z,18.9307
2023-05-14T06:37:38.247Z,18.9123
2023-05-14T06:38:39.896Z,18.8595
2023-05-14T06:39:42.113Z,18.8143
2023-05-14T06:40:44.512Z,18.8469
2023-05-14T06:41:47.131Z,18.8735
2023-05-14T06:42:49.648Z,18.8909
2023-05-14T06:43:51.580Z,18.8439
2023-05-14T06:44:53.841Z,18.8016
2023-05-14T06:45:56.134Z,18.7470
2023-05-14T06:46:58.572Z,18.7607
2023-05-14T06:48:01.506Z,18.8804
2023-05-14T06:49:03.126Z,18.9231
2023-05-14T06:50:05.435Z,18.8981
2023-05-14T06:51:07.787Z,18.8609
2023-05-14T06:52:10.128Z,18.8281
2023-05-14T06:53:12.431Z,18.9067
2023-05-14T06:54:14.787Z,18.9334
2023-05-14T06:55:17.096Z,18.9234
2023-05-14T06:56:19.447Z,18.8797
2023-05-14T06:57:21.780Z,18.9256
2023-05-14T06:58:24.116Z,18.9663
2023-05-14T06:59:26.552Z,19.0242
2023-05-14T07:00:28.861Z,19.0227
2023-05-14T07:01:31.189Z,19.0029
2023-05-14T07:02:33.496Z,19.0102
2023-05-14T07:03:35.832Z,18.9726
2023-05-14T07:04:39.274Z,18.9223
2023-05-14T07:05:40.609Z,18.9425
2023-05-14T07:06:42.820Z,18.9153
2023-05-14T07:07:45.179Z,18.8799
2023-05-14T07:08:47.482Z,18.8638
2023-05-14T07:09:49.971Z,18.8569
2023-05-14T07:10:52.308Z,18.9178
2023-05-14T07:11:54.624Z,18.9896
2023-05-14T07:12:57.079Z,18.9756
2023-05-14T07:13:59.282Z,18.9317
2023-05-14T07:15:01.585Z,18.9311
2023-05-14T07:16:03.852Z,18.9826
2023-05-14T07:17:06.312Z,18.9699
2023-05-14T07:18:08.548Z,19.0018
2023-05-14T07:19:10.979Z,18.9700
2023-05-14T07:20:13.179Z,18.9435
2023-05-14T07:21:15.555Z,18.9374
2023-05-14T07:22:17.865Z,18.8739
2023-05-14T07:23:20.240Z,18.8686
2023-05-14T07:24:22.512Z,18.8798
2023-05-14T07:25:24.842Z,18.8742
2023-05-14T07:26:27.251Z,18.9118
2023-05-14T07:27:29.569Z,18.9188
2023-05-14T07:28:31.844Z,18.9122
2023-05-14T07:29:34.182Z,18.8884
2023-05-14T07:30:36.516Z,18.9013
2023-05-14T07:31:38.918Z,18.9828
2023-05-14T07:32:41.474Z,19.0616
2023-05-14T07:33:43.526Z,19.1163
2023-05-14T07:34:45.879Z,19.1901
2023-05-14T07:35:48.211Z,19.1860
2023-05-14T07:36:50.563Z,19.2547
2023-05-14T07:37:52.932Z,19.3346
2023-05-14T07:38:55.250Z,19.3263
2023-05-14T07:39:57.591Z,19.3549
2023-05-14T07:40:59.874Z,19.3554
2023-05-14T07:42:02.217Z,19.3699
2023-05-14T07:43:04.584Z,19.3228
2023-05-14T07:44:06.957Z,19.2661
2023-05-14T07:45:09.217Z,19.2623
2023-05-14T07:46:11.591Z,19.2601
2023-05-14T07:47:13.933Z,19.2969
2023-05-14T07:48:16.259Z,19.3151
2023-05-14T07:49:18.555Z,19.2950
2023-05-14T07:50:20.933Z,19.3465
2023-05-14T07:51:23.271Z,19.4228
2023-05-14T07:52:25.562Z,19.4319
2023-05-14T07:53:27.888Z,19.4549
2023-05-14T07:54:30.380Z,19.4637
2023-05-14T07:55:32.597Z,19.4571
2023-05-14T07:56:34.895Z,19.4531
2023-05-14T07:57:37.236Z,19.3998
2023-05-14T07:58:39.557Z,19.3851
2023-05-14T07:59:41.932Z,19.4468
2023-05-14T08:00:44.249Z,19.4566
2023-05-14T08:01:46.611Z,19.4537
2023-05-14T08:02:49.219Z,19.4540
2023-05-14T08:03:51.348Z,19.4135
2023-05-14T08:04:53.647Z,19.3832
2023-05-14T08:05:55.970Z,19.4092
2023-05-14T08:06:58.321Z,19.4575
2023-05-14T08:08:00.613Z,19.4712
2023-05-14T08:09:10.523Z,19.4782
2023-05-14T08:10:05.442Z,19.4815
2023-05-14T08:11:07.711Z,19.4619
2023-05-14T08:12:10.028Z,19.4674
2023-05-14T08:13:12.319Z,19.5225
2023-05-14T08:14:14.746Z,19.5902
2023-05-14T08:15:17.032Z,19.6770
2023-05-14T08:16:19.431Z,19.7253
2023-05-14T08:17:21.773Z,19.7614
2023-05-14T08:18:24.013Z,19.8052
2023-05-14T08:19:26.350Z,19.8107
2023-05-14T08:20:28.846Z,19.8866
2023-05-14T08:21:31.062Z,19.9172
2023-05-14T08:22:33.371Z,20.0077
2023-05-14T08:23:35.968Z,19.9959
2023-05-14T08:26:47.797Z,20.0010
2023-05-14T08:26:47.797Z,20.0423
2023-05-14T08:27:49.854Z,20.1319
2023-05-14T08:28:52.494Z,20.1728
2023-05-14T08:29:54.715Z,20.2597
2023-05-14T08:30:56.981Z,20.3253
2023-05-14T08:32:01.925Z,20.3805
2023-05-14T08:33:01.678Z,20.4409
2023-05-14T08:34:05.088Z,20.5138
2023-05-14T08:35:06.935Z,20.5651
2023-05-14T08:36:08.528Z,20.5396
2023-05-14T08:37:10.899Z,20.5275
2023-05-14T08:38:13.215Z,20.4920
2023-05-14T08:39:15.537Z,20.4579
2023-05-14T08:40:17.881Z,20.4216
2023-05-14T08:41:20.250Z,20.4346
2023-05-14T08:42:22.608Z,20.4765
2023-05-14T08:43:24.882Z,20.4227
2023-05-14T08:44:27.424Z,20.3300
2023-05-14T08:45:29.586Z,20.3075
2023-05-14T08:46:31.920Z,20.3521
2023-05-14T08:47:34.335Z,20.4354
2023-05-14T08:48:37.717Z,20.4390
2023-05-14T08:49:39.089Z,20.4853
2023-05-14T08:50:41.292Z,20.4963
2023-05-14T08:51:43.616Z,20.5164
2023-05-14T08:52:45.941Z,20.5664
2023-05-14T08:53:48.288Z,20.5685
2023-05-14T08:54:50.664Z,20.5765
2023-05-14T08:55:53.220Z,20.6055
2023-05-14T08:56:55.464Z,20.6192
2023-05-14T08:57:58.168Z,20.6473
2023-05-14T08:59:00.022Z,20.6644
2023-05-14T09:00:02.553Z,20.6771
2023-05-14T09:01:04.754Z,20.6284
2023-05-14T09:02:07.145Z,20.6094
2023-05-14T09:03:09.450Z,20.6820
2023-05-14T09:04:11.831Z,20.7280
2023-05-14T09:05:14.163Z,20.7511
2023-05-14T09:06:16.503Z,20.7870
2023-05-14T09:07:18.781Z,20.8531
2023-05-14T09:08:24.298Z,20.9444
2023-05-14T09:09:23.575Z,21.0297
2023-05-14T09:10:26.514Z,21.1199
2023-05-14T09:11:28.149Z,21.1609
2023-05-14T09:12:30.855Z,21.2194
2023-05-14T09:13:33.063Z,21.2631
2023-05-14T09:14:35.147Z,21.3533
2023-05-14T09:15:37.405Z,21.4362
2023-05-14T09:16:39.870Z,21.4970
2023-05-14T09:17:42.234Z,21.4357
2023-05-14T09:18:44.422Z,21.4250
2023-05-14T09:19:46.744Z,21.4366
2023-05-14T09:20:49.057Z,21.3829
2023-05-14T09:21:51.442Z,21.3911
2023-05-14T09:22:53.793Z,21.4602
2023-05-14T09:23:56.055Z,21.5574
2023-05-14T09:24:58.558Z,21.6399
2023-05-14T09:26:00.929Z,21.6983
2023-05-14T09:27:03.115Z,21.7183
2023-05-14T09:28:05.659Z,21.6974
2023-05-14T09:29:08.191Z,21.6954
2023-05-14T09:30:10.270Z,21.6530
2023-05-14T09:31:12.451Z,21.5435
2023-05-14T09:32:14.925Z,21.5902
2023-05-14T09:33:17.195Z,21.6202
2023-05-14T09:34:19.423Z,21.6945
2023-05-14T09:35:21.857Z,21.6750
2023-05-14T09:36:24.164Z,21.6056
2023-05-14T09:37:26.530Z,21.5733
2023-05-14T09:38:28.790Z,21.6201
2023-05-14T09:39:31.270Z,21.6297
2023-05-14T09:40:33.633Z,21.5968
2023-05-14T09:41:35.831Z,21.5326
2023-05-14T09:42:38.160Z,21.5020
2023-05-14T09:43:40.491Z,21.4732
2023-05-14T09:44:42.986Z,21.4218
2023-05-14T09:45:45.179Z,21.4121
2023-05-14T09:46:47.578Z,21.3119
2023-05-14T09:47:49.982Z,21.3004
2023-05-14T09:48:52.218Z,21.3724
2023-05-14T09:49:54.522Z,21.4507
2023-05-14T09:50:56.880Z,21.4829
2023-05-14T09:51:59.223Z,21.5134
2023-05-14T09:53:01.541Z,21.5808
2023-05-14T09:54:03.955Z,21.6140
2023-05-14T09:55:06.202Z,21.6616
2023-05-14T09:56:08.541Z,21.7038
2023-05-14T09:57:10.949Z,21.7184
2023-05-14T09:58:13.241Z,21.8017
2023-05-14T09:59:15.547Z,21.8284
2023-05-14T10:00:17.872Z,21.8675
2023-05-14T10:01:20.308Z,21.8415
2023-05-14T10:02:22.577Z,21.8260
2023-05-14T10:03:24.981Z,21.7502
2023-05-14T10:04:27.411Z,21.7397
2023-05-14T10:05:29.585Z,21.6752
2023-05-14T10:06:32.109Z,21.6800
2023-05-14T10:07:34.260Z,21.7501
2023-05-14T10:08:36.660Z,21.7038
2023-05-14T10:09:39.447Z,21.6440
2023-05-14T10:10:46.613Z,21.6169
2023-05-14T10:11:43.782Z,21.6108
2023-05-14T10:12:46.111Z,21.6521
2023-05-14T10:13:48.329Z,21.5769
2023-05-14T10:14:50.953Z,21.3348
2023-05-14T10:15:53.172Z,21.2670
2023-05-14T10:16:55.466Z,21.2830
2023-05-14T10:17:57.764Z,21.2359
2023-05-14T10:19:00.147Z,21.1511
2023-05-14T10:20:02.422Z,21.0295
2023-05-14T10:21:04.781Z,20.8422
2023-05-14T10:22:07.728Z,20.7704
2023-05-14T10:23:09.396Z,20.5821
2023-05-14T10:24:11.724Z,20.4844
2023-05-14T10:25:14.068Z,20.4162
2023-05-14T10:26:16.513Z,20.3139
2023-05-14T10:27:18.709Z,20.2876
2023-05-14T10:28:22.265Z,20.3061
2023-05-14T10:29:23.409Z,20.3619
2023-05-14T10:30:25.955Z,20.3983
2023-05-14T10:31:28.127Z,20.4455
2023-05-14T10:32:30.413Z,20.4364
2023-05-14T10:33:32.748Z,20.4538
2023-05-14T10:34:35.273Z,20.4835
2023-05-14T10:35:37.435Z,20.5344
2023-05-14T10:36:39.788Z,20.5641
2023-05-14T10:37:42.248Z,20.5841
2023-05-14T10:38:44.448Z,20.5627
2023-05-14T10:39:46.841Z,20.5946
2023-05-14T10:40:51.602Z,20.6655
2023-05-14T10:41:51.482Z,20.7669
2023-05-14T10:42:53.884Z,20.8125
2023-05-14T10:43:56.134Z,20.7802
2023-05-14T10:44:58.722Z,20.8301
2023-05-14T10:46:01.021Z,20.8749
2023-05-14T10:47:03.678Z,20.9362
2023-05-14T10:48:10.286Z,21.0005
2023-05-14T10:49:08.022Z,21.0107
2023-05-14T10:50:11.145Z,21.0496
2023-05-14T10:51:12.832Z,21.0770
2023-05-14T10:52:15.158Z,21.1174
2023-05-14T10:53:17.688Z,21.1267
2023-05-14T10:54:19.676Z,21.1763
2023-05-14T10:55:21.999Z,21.2372
2023-05-14T10:56:24.514Z,21.2558
2023-05-14T10:57:26.739Z,21.2925
2023-05-14T10:58:29.405Z,21.3780
2023-05-14T10:59:31.166Z,21.3669
2023-05-14T11:00:33.517Z,21.4376
2023-05-14T11:01:36.006Z,21.5176
2023-05-14T11:02:38.315Z,21.5400
2023-05-14T11:03:40.848Z,21.5767
2023-05-14T11:04:42.889Z,21.5944
2023-05-14T11:05:45.259Z,21.6115
2023-05-14T11:06:47.646Z,21.6741
2023-05-14T11:07:49.860Z,21.7805
2023-05-14T11:08:52.226Z,21.8302
2023-05-14T11:09:54.549Z,21.8833
2023-05-14T11:10:56.877Z,21.9191
2023-05-14T11:11:59.325Z,21.9159
2023-05-14T11:13:01.558Z,21.9899
2023-05-14T11:14:03.899Z,22.1200
2023-05-14T11:15:06.418Z,22.1938
2023-05-14T11:16:21.894Z,22.2687
2023-05-14T11:17:11.303Z,22.3068
2023-05-14T11:18:13.316Z,22.3827
2023-05-14T11:19:15.861Z,22.4741
2023-05-14T11:20:18.031Z,22.6345
2023-05-14T11:21:20.395Z,22.7334
2023-05-14T11:22:22.823Z,22.8587
2023-05-14T11:23:24.917Z,22.9527
2023-05-14T11:24:27.268Z,23.0346
2023-05-14T11:25:29.605Z,23.1558
2023-05-14T11:26:32.063Z,23.1323
2023-05-14T11:27:34.315Z,23.0365
2023-05-14T11:28:36.720Z,22.9930
2023-05-14T11:29:38.962Z,23.0112
2023-05-14T11:30:41.299Z,23.0662
2023-05-14T11:31:43.662Z,23.1118
2023-05-14T11:32:46.259Z,23.1829
2023-05-14T11:33:48.328Z,23.1829
2023-05-14T11:34:50.658Z,23.1741
2023-05-14T11:35:53.091Z,23.2666
2023-05-14T11:36:55.343Z,23.4313
2023-05-14T11:37:57.669Z,23.5045
2023-05-14T11:39:00.050Z,23.6014
2023-05-14T11:40:02.417Z,23.6668
2023-05-14T11:41:04.685Z,23.7797
2023-05-14T11:42:07.022Z,23.8497
2023-05-14T11:43:09.371Z,23.9183
2023-05-14T11:44:11.764Z,24.0579
2023-05-14T11:45:14.074Z,24.0723
2023-05-14T11:46:16.421Z,24.1058
2023-05-14T11:47:18.754Z,24.2088
2023-05-14T11:48:21.415Z,24.2589
2023-05-14T11:49:23.481Z,24.2805
2023-05-14T11:50:25.911Z,24.2441
2023-05-14T11:51:28.168Z,24.2295
2023-05-14T11:52:30.464Z,24.2482
2023-05-14T11:53:32.822Z,24.2007
2023-05-14T11:54:35.159Z,24.1811
2023-05-14T11:55:37.601Z,24.1159
2023-05-14T11:56:39.838Z,23.9999
2023-05-14T11:57:42.297Z,23.9820
2023-05-14T11:58:44.480Z,23.8758
2023-05-14T11:59:46.827Z,23.7572
2023-05-14T12:00:49.198Z,23.6322
2023-05-14T12:01:51.504Z,23.4761
2023-05-14T12:02:53.941Z,23.3978
2023-05-14T12:03:56.241Z,23.3234
2023-05-14T12:04:58.533Z,23.2054
2023-05-14T12:06:00.915Z,23.0999
2023-05-14T12:07:03.229Z,22.9575
2023-05-14T12:08:05.624Z,22.7922
2023-05-14T12:09:07.916Z,22.6663
2023-05-14T12:10:10.239Z,22.6073
2023-05-14T12:11:12.601Z,22.5422
2023-05-14T12:12:14.969Z,22.4692
2023-05-14T12:13:17.349Z,22.3785
2023-05-14T12:14:19.698Z,22.2738
2023-05-14T12:15:22.024Z,22.2044
2023-05-14T12:16:25.010Z,22.1199
2023-05-14T12:17:27.208Z,22.0524
2023-05-14T12:18:29.161Z,22.0347
2023-05-14T12:19:31.407Z,21.9640
2023-05-14T12:20:33.734Z,21.9022
2023-05-14T12:21:36.232Z,21.8509
2023-05-14T12:22:41.575Z,21.7769
2023-05-14T12:23:42.823Z,21.7292
2023-05-14T12:24:45.600Z,21.6663
2023-05-14T12:25:46.319Z,21.6206
2023-05-14T12:26:48.308Z,21.5345
2023-05-14T12:27:50.762Z,21.5346
2023-05-14T12:28:52.634Z,21.5065
2023-05-14T12:29:54.956Z,21.4468
2023-05-14T12:31:19.850Z,21.3310
2023-05-14T12:31:59.791Z,21.3546
2023-05-14T12:33:02.300Z,21.3920
2023-05-14T12:34:04.743Z,21.3086
2023-05-14T12:35:07.006Z,21.1954